createdAt,value
2023-01-03T00:01:52.869Z,102296.34
2023-01-03T00:04:21.752Z,102305.78
2023-01-03T00:06:52.825Z,102298.09
2023-01-03T00:09:23.810Z,102289.59
2023-01-03T00:12:12.186Z,102289.38
2023-01-03T00:14:44.884Z,102296.13
2023-01-03T00:17:14.215Z,102297.09
2023-01-03T00:19:43.980Z,102296.06
2023-01-03T00:22:13.753Z,102289.59
2023-01-03T00:24:43.546Z,102298.84
2023-01-03T00:27:12.440Z,102295.00
2023-01-03T00:29:41.329Z,102287.91
2023-01-03T00:32:09.862Z,102294.50
2023-01-03T00:34:38.263Z,102296.94
2023-01-03T00:37:06.510Z,102276.50
2023-01-03T00:39:34.600Z,102284.50
2023-01-03T00:42:02.651Z,102283.63
2023-01-03T00:44:31.741Z,102278.31
2023-01-03T00:47:00.259Z,102281.50
2023-01-03T00:49:28.849Z,102290.31
2023-01-03T00:51:56.764Z,102282.63
2023-01-03T00:54:24.875Z,102286.69
2023-01-03T00:56:53.169Z,102282.34
2023-01-03T00:59:22.662Z,102285.28
2023-01-03T01:01:53.474Z,102293.09
2023-01-03T01:04:24.876Z,102279.53
2023-01-03T01:06:57.170Z,102297.03
2023-01-03T01:09:28.163Z,102296.88
2023-01-03T01:11:56.689Z,102298.81
2023-01-03T01:14:27.143Z,102294.53
2023-01-03T01:16:58.097Z,102295.25
2023-01-03T01:19:28.870Z,102293.75
2023-01-03T01:22:04.093Z,102300.53
2023-01-03T01:24:32.631Z,102304.00
2023-01-03T01:27:00.887Z,102295.84
2023-01-03T01:29:29.173Z,102296.91
2023-01-03T01:31:57.454Z,102300.75
2023-01-03T01:34:25.857Z,102298.94
2023-01-03T01:36:55.993Z,102294.44
2023-01-03T01:39:26.657Z,102294.75
2023-01-03T01:42:19.748Z,102301.63
2023-01-03T01:45:00.258Z,102305.00
2023-01-03T01:47:33.402Z,102298.16
2023-01-03T01:50:07.605Z,102306.53
2023-01-03T01:52:39.376Z,102306.38
2023-01-03T01:55:13.428Z,102301.69
2023-01-03T01:57:43.670Z,102296.31
2023-01-03T02:00:12.565Z,102295.50
2023-01-03T02:02:47.562Z,102298.31
2023-01-03T02:05:17.524Z,102301.88
2023-01-03T02:07:49.294Z,102299.22
2023-01-03T02:10:25.622Z,102294.50
2023-01-03T02:13:07.414Z,102288.44
2023-01-03T02:15:55.808Z,102289.53
2023-01-03T02:18:35.241Z,102290.41
2023-01-03T02:21:24.772Z,102285.19
2023-01-03T02:24:06.147Z,102286.63
2023-01-03T02:26:48.971Z,102282.03
2023-01-03T02:29:25.928Z,102285.06
2023-01-03T02:32:24.075Z,102270.88
2023-01-03T02:35:06.761Z,102270.19
2023-01-03T02:37:40.558Z,102276.78
2023-01-03T02:40:37.863Z,102276.41
2023-01-03T02:43:28.659Z,102277.44
2023-01-03T02:46:05.285Z,102284.53
2023-01-03T02:48:36.518Z,102277.63
2023-01-03T02:51:19.609Z,102273.38
2023-01-03T02:53:50.130Z,102267.91
2023-01-03T02:56:30.612Z,102266.78
2023-01-03T02:59:06.516Z,102266.91
2023-01-03T03:01:36.738Z,102262.91
2023-01-03T03:04:06.756Z,102265.97
2023-01-03T03:06:48.856Z,102269.25
2023-01-03T03:09:17.029Z,102265.84
2023-01-03T03:12:04.947Z,102262.38
2023-01-03T03:14:47.750Z,102263.53
2023-01-03T03:17:24.027Z,102270.84
2023-01-03T03:20:15.943Z,102260.13
2023-01-03T03:23:08.686Z,102269.34
2023-01-03T03:25:45.545Z,102265.13
2023-01-03T03:28:35.044Z,102259.38
2023-01-03T03:31:25.298Z,102260.78
2023-01-03T03:33:59.469Z,102257.25
2023-01-03T03:36:39.206Z,102257.72
2023-01-03T03:39:29.926Z,102259.31
2023-01-03T03:42:30.901Z,102264.94
2023-01-03T03:45:03.959Z,102264.97
2023-01-03T03:47:41.087Z,102262.13
2023-01-03T03:50:17.810Z,102256.81
2023-01-03T03:52:49.460Z,102259.38
2023-01-03T03:55:24.262Z,102260.94
2023-01-03T03:58:01.027Z,102260.72
2023-01-03T04:00:36.323Z,102262.63
2023-01-03T04:03:06.778Z,102268.00
2023-01-03T04:05:39.651Z,102263.25
2023-01-03T04:08:08.196Z,102262.88
2023-01-03T04:10:38.156Z,102263.66
2023-01-03T04:13:06.547Z,102256.94
2023-01-03T04:15:34.186Z,102259.44
2023-01-03T04:18:03.004Z,102255.28
2023-01-03T04:20:31.440Z,102259.63
2023-01-03T04:23:00.918Z,102259.00
2023-01-03T04:25:29.190Z,102259.28
2023-01-03T04:27:57.818Z,102247.69
2023-01-03T04:30:25.770Z,102255.38
2023-01-03T04:32:53.801Z,102264.06
2023-01-03T04:35:21.888Z,102265.13
2023-01-03T04:37:50.145Z,102265.69
2023-01-03T04:40:18.133Z,102262.38
2023-01-03T04:43:04.411Z,102259.13
2023-01-03T04:45:32.360Z,102262.91
2023-01-03T04:48:01.984Z,102262.16
2023-01-03T04:50:31.292Z,102257.34
2023-01-03T04:52:59.381Z,102264.09
2023-01-03T04:55:27.402Z,102265.34
2023-01-03T04:57:55.402Z,102264.06
2023-01-03T05:00:23.524Z,102264.84
2023-01-03T05:02:51.784Z,102265.84
2023-01-03T05:05:19.722Z,102263.41
2023-01-03T05:07:47.744Z,102256.63
2023-01-03T05:10:16.270Z,102268.84
2023-01-03T05:12:59.701Z,102262.03
2023-01-03T05:15:34.593Z,102263.81
2023-01-03T05:18:03.031Z,102265.63
2023-01-03T05:20:49.161Z,102267.47
2023-01-03T05:23:36.319Z,102276.34
2023-01-03T05:26:08.702Z,102274.97
2023-01-03T05:28:36.781Z,102278.72
2023-01-03T05:31:04.986Z,102280.31
2023-01-03T05:33:33.365Z,102281.75
2023-01-03T05:36:01.546Z,102287.94
2023-01-03T05:38:29.857Z,102290.91
2023-01-03T05:40:58.393Z,102293.91
2023-01-03T05:43:26.584Z,102298.38
2023-01-03T05:45:54.686Z,102290.47
2023-01-03T05:48:22.936Z,102297.75
2023-01-03T05:50:51.332Z,102297.56
2023-01-03T05:53:22.157Z,102300.38
2023-01-03T05:55:53.371Z,102302.16
2023-01-03T05:58:21.225Z,102307.81
2023-01-03T06:00:49.352Z,102304.56
2023-01-03T06:03:17.607Z,102306.50
2023-01-03T06:05:50.108Z,102303.69
2023-01-03T06:08:18.749Z,102314.28
2023-01-03T06:10:46.602Z,102309.50
2023-01-03T06:13:14.620Z,102307.63
2023-01-03T06:15:42.713Z,102309.16
2023-01-03T06:18:10.820Z,102305.75
2023-01-03T06:20:38.687Z,102314.06
2023-01-03T06:23:06.892Z,102311.22
2023-01-03T06:25:34.632Z,102318.34
2023-01-03T06:28:02.711Z,102314.56
2023-01-03T06:30:31.335Z,102326.59
2023-01-03T06:32:59.305Z,102317.81
2023-01-03T06:35:27.427Z,102317.75
2023-01-03T06:37:55.669Z,102315.75
2023-01-03T06:40:23.614Z,102322.13
2023-01-03T06:42:51.475Z,102322.06
2023-01-03T06:45:37.842Z,102323.00
2023-01-03T06:48:25.295Z,102318.41
2023-01-03T06:51:11.765Z,102313.75
2023-01-03T06:53:42.736Z,102323.47
2023-01-03T06:56:10.673Z,102312.69
2023-01-03T06:58:38.576Z,102318.94
2023-01-03T07:01:06.972Z,102326.84
2023-01-03T07:03:35.263Z,102327.28
2023-01-03T07:06:03.208Z,102321.94
2023-01-03T07:08:31.109Z,102326.59
2023-01-03T07:10:59.413Z,102321.34
2023-01-03T07:13:45.810Z,102339.72
2023-01-03T07:16:19.721Z,102335.38
2023-01-03T07:18:54.640Z,102336.19
2023-01-03T07:21:24.938Z,102343.25
2023-01-03T07:23:53.918Z,102341.69
2023-01-03T07:26:24.449Z,102342.31
2023-01-03T07:28:52.752Z,102337.78
2023-01-03T07:31:20.984Z,102337.69
2023-01-03T07:33:49.271Z,102352.16
2023-01-03T07:36:18.219Z,102349.53
2023-01-03T07:38:47.283Z,102340.72
2023-01-03T07:41:16.048Z,102346.75
2023-01-03T07:43:48.801Z,102355.47
2023-01-03T07:46:25.209Z,102354.88
2023-01-03T07:48:57.428Z,102350.34
2023-01-03T07:51:25.228Z,102352.91
2023-01-03T07:53:53.787Z,102342.75
2023-01-03T07:56:25.180Z,102348.25
2023-01-03T07:58:52.971Z,102349.69
2023-01-03T08:01:23.214Z,102349.75
2023-01-03T08:03:51.553Z,102345.09
2023-01-03T08:06:22.488Z,102344.03
2023-01-03T08:09:10.976Z,102340.31
2023-01-03T08:11:57.384Z,102342.31
2023-01-03T08:14:27.423Z,102351.41
2023-01-03T08:16:56.168Z,102344.22
2023-01-03T08:19:24.953Z,102349.50
2023-01-03T08:21:52.940Z,102354.25
2023-01-03T08:24:20.920Z,102348.72
2023-01-03T08:26:48.660Z,102352.03
2023-01-03T08:29:17.179Z,102346.63
2023-01-03T08:31:57.261Z,102362.47
2023-01-03T08:34:30.487Z,102361.66
2023-01-03T08:37:03.380Z,102363.13
2023-01-03T08:39:39.494Z,102371.78
2023-01-03T08:42:08.905Z,102366.56
2023-01-03T08:44:38.459Z,102372.97
2023-01-03T08:47:08.713Z,102371.69
2023-01-03T08:49:37.441Z,102380.97
2023-01-03T08:52:05.325Z,102383.66
2023-01-03T08:54:33.919Z,102368.88
2023-01-03T08:57:07.049Z,102385.09
2023-01-03T08:59:35.125Z,102380.84
2023-01-03T09:02:03.899Z,102388.13
2023-01-03T09:04:32.016Z,102378.09
2023-01-03T09:07:00.810Z,102383.94
2023-01-03T09:09:28.597Z,102382.72
2023-01-03T09:11:56.585Z,102393.06
2023-01-03T09:14:24.409Z,102387.53
2023-01-03T09:16:52.165Z,102387.41
2023-01-03T09:19:20.364Z,102396.00
2023-01-03T09:21:48.288Z,102397.97
2023-01-03T09:24:16.348Z,102400.16
2023-01-03T09:26:49.243Z,102401.63
2023-01-03T09:29:20.321Z,102388.16
2023-01-03T09:31:51.287Z,102391.59
2023-01-03T09:34:19.854Z,102389.63
2023-01-03T09:36:47.727Z,102393.19
2023-01-03T09:39:15.551Z,102385.94
2023-01-03T09:41:44.134Z,102393.44
2023-01-03T09:44:13.035Z,102385.13
2023-01-03T09:46:40.963Z,102386.00
2023-01-03T09:49:13.192Z,102387.44
2023-01-03T09:52:04.324Z,102383.84
2023-01-03T09:54:53.373Z,102383.78
2023-01-03T09:57:59.910Z,102377.81
2023-01-03T10:00:55.072Z,102375.50
2023-01-03T10:03:57.861Z,102383.28
2023-01-03T10:06:31.332Z,102373.94
2023-01-03T10:09:29.864Z,102371.66
2023-01-03T10:12:03.756Z,102366.47
2023-01-03T10:14:34.875Z,102356.69
2023-01-03T10:17:14.240Z,102365.09
2023-01-03T10:20:00.720Z,102353.22
2023-01-03T10:22:30.343Z,102350.69
2023-01-03T10:25:05.976Z,102348.56
2023-01-03T10:27:38.916Z,102350.63
2023-01-03T10:30:13.544Z,102346.13
2023-01-03T10:32:44.495Z,102342.56
2023-01-03T10:35:31.597Z,102342.81
2023-01-03T10:37:59.685Z,102333.75
2023-01-03T10:40:44.654Z,102333.03
2023-01-03T10:43:19.706Z,102338.03
2023-01-03T10:45:53.347Z,102340.19
2023-01-03T10:48:21.671Z,102334.59
2023-01-03T10:50:50.842Z,102323.47
2023-01-03T10:53:22.309Z,102325.28
2023-01-03T10:55:53.195Z,102330.75
2023-01-03T10:58:23.987Z,102319.88
2023-01-03T11:00:54.564Z,102319.97
2023-01-03T11:03:25.505Z,102321.34
2023-01-03T11:05:56.862Z,102321.00
2023-01-03T11:08:37.805Z,102309.53
2023-01-03T11:11:05.692Z,102306.78
2023-01-03T11:13:41.027Z,102305.41
2023-01-03T11:16:32.223Z,102301.41
2023-01-03T11:19:05.188Z,102297.06
2023-01-03T11:21:55.039Z,102296.78
2023-01-03T11:24:53.315Z,102297.91
2023-01-03T11:27:45.821Z,102298.25
2023-01-03T11:30:19.236Z,102296.97
2023-01-03T11:32:55.063Z,102296.97
2023-01-03T11:35:44.633Z,102296.06
2023-01-03T11:38:31.287Z,102295.00
2023-01-03T11:41:17.669Z,102296.53
2023-01-03T11:44:00.874Z,102299.91
2023-01-03T11:46:37.672Z,102296.66
2023-01-03T11:49:39.863Z,102290.44
2023-01-03T11:52:10.457Z,102299.56
2023-01-03T11:55:24.662Z,102295.75
2023-01-03T11:58:03.215Z,102289.66
2023-01-03T12:00:46.495Z,102290.31
2023-01-03T12:03:15.044Z,102284.88
2023-01-03T12:05:47.315Z,102279.56
2023-01-03T12:08:51.926Z,102283.03
2023-01-03T12:11:38.960Z,102278.97
2023-01-03T12:14:21.872Z,102270.44
2023-01-03T12:16:52.891Z,102269.25
2023-01-03T12:19:32.769Z,102274.66
2023-01-03T12:22:23.021Z,102267.75
2023-01-03T12:25:25.753Z,102263.03
2023-01-03T12:28:02.244Z,102260.53
2023-01-03T12:30:34.298Z,102254.19
2023-01-03T12:33:20.247Z,102243.75
2023-01-03T12:36:01.821Z,102243.84
2023-01-03T12:38:42.547Z,102249.56
2023-01-03T12:41:24.224Z,102251.59
2023-01-03T12:43:59.872Z,102245.44
2023-01-03T12:46:34.880Z,102227.56
2023-01-03T12:49:25.847Z,102230.00
2023-01-03T12:51:54.027Z,102240.00
2023-01-03T12:54:54.051Z,102235.94
2023-01-03T12:57:42.776Z,102236.72
2023-01-03T13:00:10.994Z,102234.19
2023-01-03T13:02:57.880Z,102228.09
2023-01-03T13:05:58.302Z,102226.06
2023-01-03T13:08:44.351Z,102230.72
2023-01-03T13:11:18.729Z,102221.91
2023-01-03T13:13:54.584Z,102220.69
2023-01-03T13:16:34.435Z,102225.28
2023-01-03T13:19:22.610Z,102214.47
2023-01-03T13:22:01.165Z,102219.16
2023-01-03T13:24:49.411Z,102208.47
2023-01-03T13:27:22.979Z,102216.00
2023-01-03T13:29:50.712Z,102203.53
2023-01-03T13:32:31.595Z,102206.66
2023-01-03T13:35:02.483Z,102198.72
2023-01-03T13:37:54.943Z,102196.03
2023-01-03T13:40:59.834Z,102191.31
2023-01-03T13:43:22.529Z,102186.59
2023-01-03T13:45:53.777Z,102193.78
2023-01-03T13:48:40.840Z,102204.81
2023-01-03T13:51:14.536Z,102204.03
2023-01-03T13:54:04.133Z,102215.44
2023-01-03T13:56:54.570Z,102213.88
2023-01-03T13:59:28.463Z,102223.78
2023-01-03T14:02:30.547Z,102208.06
2023-01-03T14:05:18.691Z,102202.78
2023-01-03T14:08:13.658Z,102205.03
2023-01-03T14:11:01.439Z,102204.41
2023-01-03T14:13:35.061Z,102201.59
2023-01-03T14:16:11.873Z,102208.28
2023-01-03T14:18:44.903Z,102210.25
2023-01-03T14:21:25.655Z,102216.72
2023-01-03T14:24:00.240Z,102214.66
2023-01-03T14:26:32.960Z,102222.94
2023-01-03T14:29:01.498Z,102222.47
2023-01-03T14:31:30.324Z,102223.88
2023-01-03T14:34:01.368Z,102223.69
2023-01-03T14:36:44.685Z,102235.41
2023-01-03T14:39:22.784Z,102236.72
2023-01-03T14:41:51.469Z,102229.97
2023-01-03T14:44:19.539Z,102232.47
2023-01-03T14:47:00.187Z,102237.66
2023-01-03T14:49:50.351Z,102237.88
2023-01-03T14:52:29.483Z,102234.31
2023-01-03T14:55:05.940Z,102229.53
2023-01-03T14:57:39.229Z,102225.06
2023-01-03T15:00:16.136Z,102221.91
2023-01-03T15:02:46.999Z,102218.44
2023-01-03T15:05:31.320Z,102220.94
2023-01-03T15:08:11.558Z,102210.09
2023-01-03T15:10:52.975Z,102222.44
2023-01-03T15:13:35.663Z,102223.47
2023-01-03T15:16:19.444Z,102227.59
2023-01-03T15:18:48.738Z,102230.13
2023-01-03T15:21:19.137Z,102232.06
2023-01-03T15:23:50.019Z,102232.94
2023-01-03T15:26:23.076Z,102233.25
2023-01-03T15:29:10.406Z,102242.13
2023-01-03T15:32:00.925Z,102239.28
2023-01-03T15:34:29.905Z,102240.34
2023-01-03T15:37:02.338Z,102247.59
2023-01-03T15:39:43.321Z,102244.78
2023-01-03T15:42:44.727Z,102253.91
2023-01-03T15:45:35.292Z,102246.00
2023-01-03T15:48:13.702Z,102249.41
2023-01-03T15:50:51.057Z,102246.50
2023-01-03T15:53:24.257Z,102244.66
2023-01-03T15:55:57.533Z,102261.03
2023-01-03T15:58:29.711Z,102263.63
2023-01-03T16:01:00.195Z,102262.84
2023-01-03T16:03:33.669Z,102266.06
2023-01-03T16:06:02.979Z,102259.59
2023-01-03T16:08:36.514Z,102265.66
2023-01-03T16:11:05.986Z,102265.38
2023-01-03T16:13:40.536Z,102274.66
2023-01-03T16:16:09.972Z,102274.72
2023-01-03T16:18:42.680Z,102273.72
2023-01-03T16:21:12.930Z,102287.16
2023-01-03T16:23:43.721Z,102279.22
2023-01-03T16:26:11.844Z,102283.03
2023-01-03T16:28:39.849Z,102277.06
2023-01-03T16:31:14.949Z,102285.94
2023-01-03T16:33:44.540Z,102271.13
2023-01-03T16:36:22.011Z,102287.66
2023-01-03T16:38:50.198Z,102284.34
2023-01-03T16:41:18.173Z,102277.69
2023-01-03T16:43:46.619Z,102274.28
2023-01-03T16:46:19.073Z,102278.19
2023-01-03T16:48:52.568Z,102272.97
2023-01-03T16:51:29.784Z,102278.09
2023-01-03T16:54:00.391Z,102273.50
2023-01-03T16:56:28.315Z,102289.50
2023-01-03T16:58:57.433Z,102290.63
2023-01-03T17:01:25.412Z,102292.00
2023-01-03T17:03:53.254Z,102297.78
2023-01-03T17:06:37.874Z,102305.13
2023-01-03T17:09:35.876Z,102308.19
2023-01-03T17:12:05.159Z,102301.50
2023-01-03T17:14:37.228Z,102307.66
2023-01-03T17:17:06.726Z,102307.00
2023-01-03T17:22:24.813Z,102312.72
2023-01-03T17:24:53.080Z,102313.91
2023-01-03T17:27:33.184Z,102308.41
2023-01-03T17:30:04.670Z,102312.53
2023-01-03T17:32:33.928Z,102311.00
2023-01-03T17:35:05.347Z,102312.53
2023-01-03T17:38:05.715Z,102309.94
2023-01-03T17:40:33.189Z,102320.63
2023-01-03T17:43:05.004Z,102311.97
2023-01-03T17:45:51.245Z,102313.63
2023-01-03T17:48:37.940Z,102309.16
2023-01-03T17:51:10.875Z,102319.94
2023-01-03T17:53:40.110Z,102324.75
2023-01-03T17:56:14.353Z,102317.94
2023-01-03T17:58:43.697Z,102325.63
2023-01-03T18:01:14.164Z,102318.06
2023-01-03T18:03:42.727Z,102334.31
2023-01-03T18:06:19.081Z,102323.03
2023-01-03T18:08:48.217Z,102331.09
2023-01-03T18:11:21.169Z,102333.84
2023-01-03T18:13:49.965Z,102340.03
2023-01-03T18:16:21.483Z,102335.75
2023-01-03T18:18:50.257Z,102339.44
2023-01-03T18:21:23.725Z,102344.59
2023-01-03T18:24:01.521Z,102339.56
2023-01-03T18:26:38.514Z,102341.19
2023-01-03T18:29:06.795Z,102349.84
2023-01-03T18:31:35.160Z,102349.63
2023-01-03T18:34:04.766Z,102343.00
2023-01-03T18:36:44.871Z,102343.78
2023-01-03T18:39:27.023Z,102352.34
2023-01-03T18:42:16.268Z,102359.03
2023-01-03T18:44:45.246Z,102357.34
2023-01-03T18:47:14.400Z,102363.53
2023-01-03T18:49:42.535Z,102362.25
2023-01-03T18:52:32.325Z,102370.91
2023-01-03T18:55:00.946Z,102363.91
2023-01-03T18:57:29.405Z,102374.41
2023-01-03T18:59:57.750Z,102369.69
2023-01-03T19:02:26.702Z,102372.00
2023-01-03T19:04:55.105Z,102372.72
2023-01-03T19:07:34.711Z,102361.78
2023-01-03T19:10:06.089Z,102366.13
2023-01-03T19:12:39.331Z,102365.53
2023-01-03T19:15:25.847Z,102356.84
2023-01-03T19:17:53.851Z,102362.97
2023-01-03T19:20:26.722Z,102367.59
2023-01-03T19:22:56.260Z,102370.84
2023-01-03T19:25:29.728Z,102360.34
2023-01-03T19:28:00.850Z,102366.13
2023-01-03T19:30:39.717Z,102368.06
2023-01-03T19:33:15.123Z,102374.41
2023-01-03T19:35:43.853Z,102365.56
2023-01-03T19:38:12.490Z,102374.13
2023-01-03T19:40:43.326Z,102387.44
2023-01-03T19:43:20.550Z,102388.41
2023-01-03T19:45:49.418Z,102388.34
2023-01-03T19:48:21.049Z,102392.53
2023-01-03T19:50:50.365Z,102397.97
2023-01-03T19:53:19.048Z,102394.94
2023-01-03T19:55:48.961Z,102394.75
2023-01-03T19:58:24.231Z,102386.09
2023-01-03T20:00:53.145Z,102389.75
2023-01-03T20:03:34.909Z,102387.94
2023-01-03T20:06:03.334Z,102394.88
2023-01-03T20:08:31.694Z,102391.78
2023-01-03T20:10:59.709Z,102394.31
2023-01-03T20:13:28.258Z,102388.75
2023-01-03T20:16:00.761Z,102393.22
2023-01-03T20:18:37.032Z,102390.63
2023-01-03T20:21:18.254Z,102386.66
2023-01-03T20:23:56.052Z,102393.28
2023-01-03T20:26:27.302Z,102392.41
2023-01-03T20:28:57.258Z,102391.47
2023-01-03T20:31:26.211Z,102393.19
2023-01-03T20:33:57.263Z,102387.88
2023-01-03T20:36:32.533Z,102391.13
2023-01-03T20:39:01.331Z,102392.88
2023-01-03T20:41:38.379Z,102388.31
2023-01-03T20:44:08.843Z,102392.66
2023-01-03T20:46:40.272Z,102398.25
2023-01-03T20:49:21.573Z,102384.38
2023-01-03T20:51:49.608Z,102385.41
2023-01-03T20:54:18.060Z,102381.97
2023-01-03T20:56:46.814Z,102379.31
2023-01-03T20:59:17.417Z,102380.78
2023-01-03T21:01:48.766Z,102384.00
2023-01-03T21:04:17.443Z,102380.41
2023-01-03T21:06:48.996Z,102384.31
2023-01-03T21:09:17.124Z,102394.59
2023-01-03T21:11:47.346Z,102371.78
2023-01-03T21:14:15.768Z,102378.97
2023-01-03T21:16:46.647Z,102380.66
2023-01-03T21:19:16.242Z,102379.25
2023-01-03T21:21:46.696Z,102384.16
2023-01-03T21:24:19.595Z,102381.19
2023-01-03T21:26:48.144Z,102379.44
2023-01-03T21:29:16.113Z,102384.81
2023-01-03T21:31:44.581Z,102375.59
2023-01-03T21:34:20.785Z,102380.19
2023-01-03T21:36:48.824Z,102388.34
2023-01-03T21:39:17.743Z,102384.81
2023-01-03T21:42:04.061Z,102390.03
2023-01-03T21:44:32.017Z,102384.91
2023-01-03T21:47:00.058Z,102388.97
2023-01-03T21:49:28.090Z,102398.81
2023-01-03T21:51:56.259Z,102397.06
2023-01-03T21:54:27.752Z,102401.28
2023-01-03T21:56:55.725Z,102395.97
2023-01-03T21:59:24.206Z,102406.31
2023-01-03T22:02:10.468Z,102404.44
2023-01-03T22:04:38.623Z,102407.94
2023-01-03T22:07:06.995Z,102406.72
2023-01-03T22:09:53.656Z,102420.97
2023-01-03T22:12:21.867Z,102419.50
2023-01-03T22:14:58.847Z,102417.78
2023-01-03T22:17:30.317Z,102418.00
2023-01-03T22:19:58.888Z,102425.75
2023-01-03T22:22:26.973Z,102423.19
2023-01-03T22:24:54.745Z,102426.84
2023-01-03T22:27:22.849Z,102427.91
2023-01-03T22:29:50.801Z,102436.66
2023-01-03T22:32:26.288Z,102436.19
2023-01-03T22:34:54.740Z,102432.59
2023-01-03T22:37:22.900Z,102439.50
2023-01-03T22:39:51.930Z,102446.66
2023-01-03T22:42:20.477Z,102446.56
2023-01-03T22:44:48.643Z,102440.44
2023-01-03T22:47:17.438Z,102449.50
2023-01-03T22:49:45.824Z,102440.03
2023-01-03T22:52:14.000Z,102441.88
2023-01-03T22:54:42.302Z,102447.09
2023-01-03T22:57:10.193Z,102449.69
2023-01-03T22:59:38.479Z,102442.50
2023-01-03T23:02:07.030Z,102452.53
2023-01-03T23:04:35.275Z,102452.34
2023-01-03T23:07:05.773Z,102440.78
2023-01-03T23:09:34.131Z,102444.88
2023-01-03T23:12:20.538Z,102447.22
2023-01-03T23:14:48.536Z,102447.44
2023-01-03T23:17:35.255Z,102448.47
2023-01-03T23:20:03.477Z,102440.59
2023-01-03T23:22:31.808Z,102431.91
2023-01-03T23:24:59.801Z,102429.19
2023-01-03T23:27:27.934Z,102426.28
2023-01-03T23:29:55.852Z,102434.25
2023-01-03T23:32:24.102Z,102429.19
2023-01-03T23:34:52.167Z,102423.06
2023-01-03T23:37:20.453Z,102422.19
2023-01-03T23:39:48.689Z,102422.25
2023-01-03T23:42:18.859Z,102425.78
2023-01-03T23:44:47.528Z,102429.44
2023-01-03T23:47:15.990Z,102428.97
2023-01-03T23:49:47.187Z,102425.28
2023-01-03T23:52:15.717Z,102433.31
2023-01-03T23:54:43.819Z,102423.56
2023-01-03T23:57:11.668Z,102418.47
2023-01-03T23:59:39.656Z,102410.75
